sensor_id;sensor_type;location;lat;lon;timestamp;P1;durP1;ratioP1;P2;durP2;ratioP2
61144;SDS011;47026;51.208;3.288;2022-12-19T00:01:15;26.05;;;10.85;;
61144;SDS011;47026;51.208;3.288;2022-12-19T00:03:49;29.33;;;13.00;;
61144;SDS011;47026;51.208;3.288;2022-12-19T00:06:20;30.98;;;12.18;;
61144;SDS011;47026;51.208;3.288;2022-12-19T00:08:51;28.10;;;12.65;;
61144;SDS011;47026;51.208;3.288;2022-12-19T00:14:07;26.33;;;12.40;;
61144;SDS011;47026;51.208;3.288;2022-12-19T00:16:36;27.85;;;14.20;;
61144;SDS011;47026;51.208;3.288;2022-12-19T00:19:02;24.85;;;12.27;;
61144;SDS011;47026;51.208;3.288;2022-12-19T00:21:29;30.60;;;13.38;;
61144;SDS011;47026;51.208;3.288;2022-12-19T00:24:04;29.98;;;13.85;;
61144;SDS011;47026;51.208;3.288;2022-12-19T00:26:33;32.97;;;12.95;;
61144;SDS011;47026;51.208;3.288;2022-12-19T00:29:01;26.12;;;10.15;;
61144;SDS011;47026;51.208;3.288;2022-12-19T00:31:30;28.08;;;13.18;;
61144;SDS011;47026;51.208;3.288;2022-12-19T00:33:59;22.87;;;10.55;;
61144;SDS011;47026;51.208;3.288;2022-12-19T00:36:28;27.17;;;12.52;;
61144;SDS011;47026;51.208;3.288;2022-12-19T00:38:58;22.27;;;11.40;;
61144;SDS011;47026;51.208;3.288;2022-12-19T00:41:31;25.85;;;11.52;;
61144;SDS011;47026;51.208;3.288;2022-12-19T00:43:59;27.58;;;12.43;;
61144;SDS011;47026;51.208;3.288;2022-12-19T00:46:31;23.30;;;11.32;;
61144;SDS011;47026;51.208;3.288;2022-12-19T00:49:19;24.48;;;11.38;;
61144;SDS011;47026;51.208;3.288;2022-12-19T00:51:45;24.65;;;12.68;;
61144;SDS011;47026;51.208;3.288;2022-12-19T00:54:11;20.48;;;12.00;;
61144;SDS011;47026;51.208;3.288;2022-12-19T00:56:36;25.10;;;11.05;;
61144;SDS011;47026;51.208;3.288;2022-12-19T00:59:02;21.92;;;10.30;;
61144;SDS011;47026;51.208;3.288;2022-12-19T01:01:29;25.98;;;12.25;;
61144;SDS011;47026;51.208;3.288;2022-12-19T01:03:57;24.50;;;11.27;;
61144;SDS011;47026;51.208;3.288;2022-12-19T01:06:24;27.87;;;12.80;;
61144;SDS011;47026;51.208;3.288;2022-12-19T01:08:51;21.75;;;11.05;;
61144;SDS011;47026;51.208;3.288;2022-12-19T01:11:16;25.65;;;11.98;;
61144;SDS011;47026;51.208;3.288;2022-12-19T01:14:02;26.90;;;13.48;;
61144;SDS011;47026;51.208;3.288;2022-12-19T01:18:54;23.42;;;11.88;;
61144;SDS011;47026;51.208;3.288;2022-12-19T01:21:19;26.87;;;13.35;;
61144;SDS011;47026;51.208;3.288;2022-12-19T01:23:45;23.80;;;12.07;;
61144;SDS011;47026;51.208;3.288;2022-12-19T01:26:12;24.83;;;13.13;;
61144;SDS011;47026;51.208;3.288;2022-12-19T01:28:38;22.05;;;11.63;;
61144;SDS011;47026;51.208;3.288;2022-12-19T01:31:04;27.45;;;12.88;;
61144;SDS011;47026;51.208;3.288;2022-12-19T01:33:30;25.10;;;11.77;;
61144;SDS011;47026;51.208;3.288;2022-12-19T01:35:56;20.37;;;10.98;;
61144;SDS011;47026;51.208;3.288;2022-12-19T01:38:22;22.75;;;12.43;;
61144;SDS011;47026;51.208;3.288;2022-12-19T01:43:17;24.50;;;12.80;;
61144;SDS011;47026;51.208;3.288;2022-12-19T01:45:44;23.90;;;11.30;;
61144;SDS011;47026;51.208;3.288;2022-12-19T01:48:16;23.08;;;12.48;;
61144;SDS011;47026;51.208;3.288;2022-12-19T01:51:10;23.00;;;11.95;;
61144;SDS011;47026;51.208;3.288;2022-12-19T01:53:45;20.88;;;11.23;;
61144;SDS011;47026;51.208;3.288;2022-12-19T01:56:22;27.23;;;12.82;;
61144;SDS011;47026;51.208;3.288;2022-12-19T01:58:52;22.02;;;12.32;;
61144;SDS011;47026;51.208;3.288;2022-12-19T02:01:20;28.40;;;13.30;;
61144;SDS011;47026;51.208;3.288;2022-12-19T02:03:46;24.17;;;12.73;;
61144;SDS011;47026;51.208;3.288;2022-12-19T02:06:12;22.20;;;11.00;;
61144;SDS011;47026;51.208;3.288;2022-12-19T02:08:39;20.30;;;10.45;;
61144;SDS011;47026;51.208;3.288;2022-12-19T02:11:06;20.73;;;10.55;;
61144;SDS011;47026;51.208;3.288;2022-12-19T02:13:31;22.87;;;11.15;;
61144;SDS011;47026;51.208;3.288;2022-12-19T02:30:15;22.48;;;12.63;;
61144;SDS011;47026;51.208;3.288;2022-12-19T02:33:01;21.05;;;11.18;;
61144;SDS011;47026;51.208;3.288;2022-12-19T02:35:45;17.48;;;10.77;;
61144;SDS011;47026;51.208;3.288;2022-12-19T02:38:27;19.55;;;10.80;;
61144;SDS011;47026;51.208;3.288;2022-12-19T02:41:12;23.15;;;12.52;;
61144;SDS011;47026;51.208;3.288;2022-12-19T02:43:43;25.90;;;12.25;;
61144;SDS011;47026;51.208;3.288;2022-12-19T02:46:12;21.40;;;11.12;;
61144;SDS011;47026;51.208;3.288;2022-12-19T02:48:40;22.35;;;12.55;;
61144;SDS011;47026;51.208;3.288;2022-12-19T02:51:06;22.30;;;11.43;;
61144;SDS011;47026;51.208;3.288;2022-12-19T02:59:05;22.35;;;11.82;;
61144;SDS011;47026;51.208;3.288;2022-12-19T03:01:56;25.25;;;14.05;;
61144;SDS011;47026;51.208;3.288;2022-12-19T03:07:11;21.02;;;10.77;;
61144;SDS011;47026;51.208;3.288;2022-12-19T03:12:45;23.33;;;12.45;;
61144;SDS011;47026;51.208;3.288;2022-12-19T03:15:15;20.73;;;11.88;;
61144;SDS011;47026;51.208;3.288;2022-12-19T03:17:42;20.75;;;11.75;;
61144;SDS011;47026;51.208;3.288;2022-12-19T03:20:12;25.45;;;12.70;;
61144;SDS011;47026;51.208;3.288;2022-12-19T03:22:57;22.92;;;12.43;;
61144;SDS011;47026;51.208;3.288;2022-12-19T03:25:23;16.23;;;8.82;;
61144;SDS011;47026;51.208;3.288;2022-12-19T03:27:52;22.37;;;12.65;;
61144;SDS011;47026;51.208;3.288;2022-12-19T03:30:19;21.98;;;12.48;;
61144;SDS011;47026;51.208;3.288;2022-12-19T03:32:45;20.25;;;12.48;;
61144;SDS011;47026;51.208;3.288;2022-12-19T03:35:23;16.55;;;10.02;;
61144;SDS011;47026;51.208;3.288;2022-12-19T03:37:54;16.95;;;8.65;;
61144;SDS011;47026;51.208;3.288;2022-12-19T03:40:24;22.17;;;12.48;;
61144;SDS011;47026;51.208;3.288;2022-12-19T03:42:52;23.38;;;11.27;;
61144;SDS011;47026;51.208;3.288;2022-12-19T03:48:07;24.48;;;11.55;;
61144;SDS011;47026;51.208;3.288;2022-12-19T03:54:17;23.33;;;11.88;;
61144;SDS011;47026;51.208;3.288;2022-12-19T03:59:19;19.67;;;10.60;;
61144;SDS011;47026;51.208;3.288;2022-12-19T04:02:05;20.83;;;11.20;;
61144;SDS011;47026;51.208;3.288;2022-12-19T04:04:36;21.27;;;11.82;;
61144;SDS011;47026;51.208;3.288;2022-12-19T04:07:11;20.88;;;10.52;;
61144;SDS011;47026;51.208;3.288;2022-12-19T04:09:38;17.87;;;10.43;;
61144;SDS011;47026;51.208;3.288;2022-12-19T04:12:13;16.83;;;9.60;;
61144;SDS011;47026;51.208;3.288;2022-12-19T04:14:42;17.02;;;9.15;;
61144;SDS011;47026;51.208;3.288;2022-12-19T04:19:57;15.77;;;8.18;;
61144;SDS011;47026;51.208;3.288;2022-12-19T04:22:30;14.35;;;8.30;;
61144;SDS011;47026;51.208;3.288;2022-12-19T04:25:04;19.92;;;9.07;;
61144;SDS011;47026;51.208;3.288;2022-12-19T04:27:34;18.12;;;9.57;;
61144;SDS011;47026;51.208;3.288;2022-12-19T04:30:01;15.68;;;9.27;;
61144;SDS011;47026;51.208;3.288;2022-12-19T04:32:29;15.43;;;8.80;;
61144;SDS011;47026;51.208;3.288;2022-12-19T04:34:58;13.27;;;8.63;;
61144;SDS011;47026;51.208;3.288;2022-12-19T04:37:23;14.73;;;7.80;;
61144;SDS011;47026;51.208;3.288;2022-12-19T04:42:15;14.32;;;8.30;;
61144;SDS011;47026;51.208;3.288;2022-12-19T04:44:40;17.15;;;9.85;;
61144;SDS011;47026;51.208;3.288;2022-12-19T04:47:06;16.42;;;8.80;;
61144;SDS011;47026;51.208;3.288;2022-12-19T04:49:32;16.10;;;9.85;;
61144;SDS011;47026;51.208;3.288;2022-12-19T04:51:57;17.52;;;8.82;;
61144;SDS011;47026;51.208;3.288;2022-12-19T04:54:23;15.38;;;8.70;;
61144;SDS011;47026;51.208;3.288;2022-12-19T04:56:49;28.62;;;11.77;;
61144;SDS011;47026;51.208;3.288;2022-12-19T05:01:40;15.50;;;7.80;;
61144;SDS011;47026;51.208;3.288;2022-12-19T05:04:05;15.15;;;7.93;;
61144;SDS011;47026;51.208;3.288;2022-12-19T05:06:31;14.87;;;7.68;;
61144;SDS011;47026;51.208;3.288;2022-12-19T05:08:56;14.20;;;8.10;;
61144;SDS011;47026;51.208;3.288;2022-12-19T05:11:22;12.02;;;7.62;;
61144;SDS011;47026;51.208;3.288;2022-12-19T05:13:48;11.85;;;6.30;;
61144;SDS011;47026;51.208;3.288;2022-12-19T05:16:16;13.73;;;8.25;;
61144;SDS011;47026;51.208;3.288;2022-12-19T05:18:42;15.25;;;8.20;;
61144;SDS011;47026;51.208;3.288;2022-12-19T05:21:08;14.02;;;8.30;;
61144;SDS011;47026;51.208;3.288;2022-12-19T05:23:35;14.40;;;8.32;;
61144;SDS011;47026;51.208;3.288;2022-12-19T05:26:01;11.40;;;8.10;;
61144;SDS011;47026;51.208;3.288;2022-12-19T05:28:28;13.35;;;7.55;;
61144;SDS011;47026;51.208;3.288;2022-12-19T05:31:28;11.60;;;7.00;;
61144;SDS011;47026;51.208;3.288;2022-12-19T05:33:47;11.98;;;8.30;;
61144;SDS011;47026;51.208;3.288;2022-12-19T05:36:13;14.77;;;7.05;;
61144;SDS011;47026;51.208;3.288;2022-12-19T05:38:40;16.58;;;8.23;;
61144;SDS011;47026;51.208;3.288;2022-12-19T05:41:07;10.52;;;6.60;;
61144;SDS011;47026;51.208;3.288;2022-12-19T05:43:32;12.60;;;7.65;;
61144;SDS011;47026;51.208;3.288;2022-12-19T05:45:58;10.65;;;6.87;;
61144;SDS011;47026;51.208;3.288;2022-12-19T05:48:24;10.52;;;7.22;;
61144;SDS011;47026;51.208;3.288;2022-12-19T05:50:49;11.82;;;6.90;;
61144;SDS011;47026;51.208;3.288;2022-12-19T05:53:16;13.38;;;7.62;;
61144;SDS011;47026;51.208;3.288;2022-12-19T05:55:42;11.65;;;6.97;;
61144;SDS011;47026;51.208;3.288;2022-12-19T05:58:08;15.70;;;7.25;;
61144;SDS011;47026;51.208;3.288;2022-12-19T06:00:34;13.68;;;7.20;;
61144;SDS011;47026;51.208;3.288;2022-12-19T06:02:59;11.20;;;6.53;;
61144;SDS011;47026;51.208;3.288;2022-12-19T06:07:50;11.25;;;6.95;;
61144;SDS011;47026;51.208;3.288;2022-12-19T06:10:16;10.63;;;6.75;;
61144;SDS011;47026;51.208;3.288;2022-12-19T06:12:42;12.05;;;6.93;;
61144;SDS011;47026;51.208;3.288;2022-12-19T06:15:07;10.90;;;6.30;;
61144;SDS011;47026;51.208;3.288;2022-12-19T06:17:34;11.27;;;7.45;;
61144;SDS011;47026;51.208;3.288;2022-12-19T06:19:59;11.15;;;7.60;;
61144;SDS011;47026;51.208;3.288;2022-12-19T06:22:25;11.63;;;7.03;;
61144;SDS011;47026;51.208;3.288;2022-12-19T06:24:51;11.63;;;6.78;;
61144;SDS011;47026;51.208;3.288;2022-12-19T06:29:42;11.35;;;6.50;;
61144;SDS011;47026;51.208;3.288;2022-12-19T06:34:33;8.80;;;5.25;;
61144;SDS011;47026;51.208;3.288;2022-12-19T06:36:58;11.90;;;6.20;;
61144;SDS011;47026;51.208;3.288;2022-12-19T06:39:24;12.75;;;6.85;;
61144;SDS011;47026;51.208;3.288;2022-12-19T06:41:50;9.15;;;6.32;;
61144;SDS011;47026;51.208;3.288;2022-12-19T06:44:34;10.32;;;6.97;;
61144;SDS011;47026;51.208;3.288;2022-12-19T06:47:00;10.45;;;6.62;;
61144;SDS011;47026;51.208;3.288;2022-12-19T06:51:51;9.80;;;5.85;;
61144;SDS011;47026;51.208;3.288;2022-12-19T06:54:16;10.52;;;6.40;;
61144;SDS011;47026;51.208;3.288;2022-12-19T06:56:42;11.15;;;5.65;;
61144;SDS011;47026;51.208;3.288;2022-12-19T07:04:40;11.77;;;7.07;;
61144;SDS011;47026;51.208;3.288;2022-12-19T07:07:12;11.70;;;7.10;;
61144;SDS011;47026;51.208;3.288;2022-12-19T07:12:04;11.10;;;7.10;;
61144;SDS011;47026;51.208;3.288;2022-12-19T07:14:31;11.43;;;6.75;;
61144;SDS011;47026;51.208;3.288;2022-12-19T07:19:23;9.95;;;7.00;;
61144;SDS011;47026;51.208;3.288;2022-12-19T07:21:51;9.40;;;5.65;;
61144;SDS011;47026;51.208;3.288;2022-12-19T07:24:16;10.68;;;6.07;;
61144;SDS011;47026;51.208;3.288;2022-12-19T07:26:42;8.57;;;6.25;;
61144;SDS011;47026;51.208;3.288;2022-12-19T07:29:09;10.07;;;7.05;;
61144;SDS011;47026;51.208;3.288;2022-12-19T07:31:35;9.75;;;6.35;;
61144;SDS011;47026;51.208;3.288;2022-12-19T07:34:01;10.98;;;5.82;;
61144;SDS011;47026;51.208;3.288;2022-12-19T07:38:52;8.02;;;4.60;;
61144;SDS011;47026;51.208;3.288;2022-12-19T07:41:18;10.38;;;6.50;;
61144;SDS011;47026;51.208;3.288;2022-12-19T07:46:12;9.82;;;5.30;;
61144;SDS011;47026;51.208;3.288;2022-12-19T07:48:38;8.50;;;5.47;;
61144;SDS011;47026;51.208;3.288;2022-12-19T07:51:03;9.10;;;5.90;;
61144;SDS011;47026;51.208;3.288;2022-12-19T07:53:29;11.93;;;6.60;;
61144;SDS011;47026;51.208;3.288;2022-12-19T07:58:21;8.10;;;5.25;;
61144;SDS011;47026;51.208;3.288;2022-12-19T08:03:23;9.68;;;6.20;;
61144;SDS011;47026;51.208;3.288;2022-12-19T08:05:49;11.60;;;6.00;;
61144;SDS011;47026;51.208;3.288;2022-12-19T08:08:15;11.48;;;6.28;;
61144;SDS011;47026;51.208;3.288;2022-12-19T08:10:41;8.65;;;6.28;;
61144;SDS011;47026;51.208;3.288;2022-12-19T08:13:07;10.77;;;6.20;;
61144;SDS011;47026;51.208;3.288;2022-12-19T08:15:33;9.30;;;6.28;;
61144;SDS011;47026;51.208;3.288;2022-12-19T08:20:24;8.77;;;5.43;;
61144;SDS011;47026;51.208;3.288;2022-12-19T08:22:49;8.13;;;5.30;;
61144;SDS011;47026;51.208;3.288;2022-12-19T08:27:41;7.57;;;5.45;;
61144;SDS011;47026;51.208;3.288;2022-12-19T08:30:07;9.68;;;5.62;;
61144;SDS011;47026;51.208;3.288;2022-12-19T08:32:33;8.35;;;6.15;;
61144;SDS011;47026;51.208;3.288;2022-12-19T08:34:58;11.43;;;5.87;;
61144;SDS011;47026;51.208;3.288;2022-12-19T08:37:24;9.85;;;4.82;;
61144;SDS011;47026;51.208;3.288;2022-12-19T08:39:50;8.88;;;5.35;;
61144;SDS011;47026;51.208;3.288;2022-12-19T08:44:41;7.25;;;5.12;;
61144;SDS011;47026;51.208;3.288;2022-12-19T08:47:07;9.73;;;5.62;;
61144;SDS011;47026;51.208;3.288;2022-12-19T08:49:33;7.37;;;5.50;;
61144;SDS011;47026;51.208;3.288;2022-12-19T08:51:59;7.93;;;5.22;;
61144;SDS011;47026;51.208;3.288;2022-12-19T08:54:24;9.02;;;5.35;;
61144;SDS011;47026;51.208;3.288;2022-12-19T08:56:51;7.10;;;5.22;;
61144;SDS011;47026;51.208;3.288;2022-12-19T08:59:16;7.28;;;4.45;;
61144;SDS011;47026;51.208;3.288;2022-12-19T09:01:42;7.90;;;4.97;;
61144;SDS011;47026;51.208;3.288;2022-12-19T09:04:08;7.40;;;5.10;;
61144;SDS011;47026;51.208;3.288;2022-12-19T09:06:33;9.43;;;5.57;;
61144;SDS011;47026;51.208;3.288;2022-12-19T09:08:59;6.87;;;5.00;;
61144;SDS011;47026;51.208;3.288;2022-12-19T09:11:24;9.57;;;5.00;;
61144;SDS011;47026;51.208;3.288;2022-12-19T09:13:50;7.03;;;5.25;;
61144;SDS011;47026;51.208;3.288;2022-12-19T09:16:20;8.60;;;5.03;;
61144;SDS011;47026;51.208;3.288;2022-12-19T09:18:49;8.45;;;5.28;;
61144;SDS011;47026;51.208;3.288;2022-12-19T09:21:17;6.37;;;4.32;;
61144;SDS011;47026;51.208;3.288;2022-12-19T09:23:47;6.53;;;4.70;;
61144;SDS011;47026;51.208;3.288;2022-12-19T09:26:18;6.62;;;4.97;;
61144;SDS011;47026;51.208;3.288;2022-12-19T09:28:45;7.22;;;4.97;;
61144;SDS011;47026;51.208;3.288;2022-12-19T09:31:12;7.57;;;5.05;;
61144;SDS011;47026;51.208;3.288;2022-12-19T09:33:40;8.43;;;4.93;;
61144;SDS011;47026;51.208;3.288;2022-12-19T09:36:06;6.60;;;4.78;;
61144;SDS011;47026;51.208;3.288;2022-12-19T09:38:35;8.15;;;5.18;;
61144;SDS011;47026;51.208;3.288;2022-12-19T09:44:07;8.35;;;5.57;;
61144;SDS011;47026;51.208;3.288;2022-12-19T09:46:53;8.30;;;5.15;;
61144;SDS011;47026;51.208;3.288;2022-12-19T09:49:23;9.93;;;5.28;;
61144;SDS011;47026;51.208;3.288;2022-12-19T09:52:04;9.75;;;6.05;;
61144;SDS011;47026;51.208;3.288;2022-12-19T09:54:55;9.43;;;5.87;;
61144;SDS011;47026;51.208;3.288;2022-12-19T09:57:39;8.70;;;4.60;;
61144;SDS011;47026;51.208;3.288;2022-12-19T10:00:15;9.02;;;5.72;;
61144;SDS011;47026;51.208;3.288;2022-12-19T10:05:23;8.50;;;6.45;;
61144;SDS011;47026;51.208;3.288;2022-12-19T10:07:50;11.73;;;6.47;;
61144;SDS011;47026;51.208;3.288;2022-12-19T10:10:19;10.27;;;6.45;;
61144;SDS011;47026;51.208;3.288;2022-12-19T10:12:56;10.98;;;6.25;;
61144;SDS011;47026;51.208;3.288;2022-12-19T10:15:41;10.32;;;5.87;;
61144;SDS011;47026;51.208;3.288;2022-12-19T10:26:16;12.30;;;6.47;;
61144;SDS011;47026;51.208;3.288;2022-12-19T10:32:10;11.57;;;6.57;;
61144;SDS011;47026;51.208;3.288;2022-12-19T10:34:55;14.30;;;7.28;;
61144;SDS011;47026;51.208;3.288;2022-12-19T10:37:26;13.32;;;6.90;;
61144;SDS011;47026;51.208;3.288;2022-12-19T10:45:13;10.95;;;7.28;;
61144;SDS011;47026;51.208;3.288;2022-12-19T10:47:41;10.98;;;6.95;;
61144;SDS011;47026;51.208;3.288;2022-12-19T10:50:10;10.10;;;6.60;;
61144;SDS011;47026;51.208;3.288;2022-12-19T10:52:51;11.95;;;6.90;;
61144;SDS011;47026;51.208;3.288;2022-12-19T10:55:26;9.23;;;6.43;;
61144;SDS011;47026;51.208;3.288;2022-12-19T10:57:58;10.00;;;6.18;;
61144;SDS011;47026;51.208;3.288;2022-12-19T11:00:33;10.73;;;6.50;;
61144;SDS011;47026;51.208;3.288;2022-12-19T11:08:34;10.95;;;6.57;;
61144;SDS011;47026;51.208;3.288;2022-12-19T11:13:39;8.15;;;5.50;;
61144;SDS011;47026;51.208;3.288;2022-12-19T11:16:10;12.85;;;7.15;;
61144;SDS011;47026;51.208;3.288;2022-12-19T11:18:43;12.02;;;6.90;;
61144;SDS011;47026;51.208;3.288;2022-12-19T11:26:30;9.55;;;5.62;;
61144;SDS011;47026;51.208;3.288;2022-12-19T11:31:45;11.32;;;6.53;;
61144;SDS011;47026;51.208;3.288;2022-12-19T11:34:16;10.45;;;6.82;;
61144;SDS011;47026;51.208;3.288;2022-12-19T11:36:48;8.38;;;6.22;;
61144;SDS011;47026;51.208;3.288;2022-12-19T11:45:05;14.15;;;6.20;;
61144;SDS011;47026;51.208;3.288;2022-12-19T11:47:46;9.23;;;5.62;;
61144;SDS011;47026;51.208;3.288;2022-12-19T11:50:20;8.20;;;5.83;;
61144;SDS011;47026;51.208;3.288;2022-12-19T11:58:15;9.45;;;5.78;;
61144;SDS011;47026;51.208;3.288;2022-12-19T12:06:12;10.15;;;6.18;;
61144;SDS011;47026;51.208;3.288;2022-12-19T12:14:11;8.10;;;6.03;;
61144;SDS011;47026;51.208;3.288;2022-12-19T12:19:22;9.25;;;5.37;;
61144;SDS011;47026;51.208;3.288;2022-12-19T12:22:13;9.20;;;5.15;;
61144;SDS011;47026;51.208;3.288;2022-12-19T12:25:04;9.38;;;5.72;;
61144;SDS011;47026;51.208;3.288;2022-12-19T12:30:32;9.07;;;4.68;;
61144;SDS011;47026;51.208;3.288;2022-12-19T12:33:22;7.57;;;5.30;;
61144;SDS011;47026;51.208;3.288;2022-12-19T12:35:58;9.98;;;4.93;;
61144;SDS011;47026;51.208;3.288;2022-12-19T12:41:14;7.85;;;5.78;;
61144;SDS011;47026;51.208;3.288;2022-12-19T12:44:21;9.02;;;5.60;;
61144;SDS011;47026;51.208;3.288;2022-12-19T12:46:48;8.73;;;5.20;;
61144;SDS011;47026;51.208;3.288;2022-12-19T12:49:27;7.50;;;5.07;;
61144;SDS011;47026;51.208;3.288;2022-12-19T12:52:01;8.55;;;5.40;;
61144;SDS011;47026;51.208;3.288;2022-12-19T12:54:38;9.98;;;5.45;;
61144;SDS011;47026;51.208;3.288;2022-12-19T12:57:14;9.68;;;5.70;;
61144;SDS011;47026;51.208;3.288;2022-12-19T13:00:30;9.48;;;5.43;;
61144;SDS011;47026;51.208;3.288;2022-12-19T13:08:36;7.87;;;4.72;;
61144;SDS011;47026;51.208;3.288;2022-12-19T13:11:05;6.10;;;3.53;;
61144;SDS011;47026;51.208;3.288;2022-12-19T13:13:56;8.02;;;4.90;;
61144;SDS011;47026;51.208;3.288;2022-12-19T13:19:16;6.07;;;4.60;;
61144;SDS011;47026;51.208;3.288;2022-12-19T13:32:25;11.40;;;5.43;;
61144;SDS011;47026;51.208;3.288;2022-12-19T13:34:59;6.35;;;4.90;;
61144;SDS011;47026;51.208;3.288;2022-12-19T13:40:13;7.50;;;5.07;;
61144;SDS011;47026;51.208;3.288;2022-12-19T13:43:05;9.93;;;4.82;;
61144;SDS011;47026;51.208;3.288;2022-12-19T13:46:38;7.82;;;5.03;;
61144;SDS011;47026;51.208;3.288;2022-12-19T13:48:51;8.20;;;5.43;;
61144;SDS011;47026;51.208;3.288;2022-12-19T13:51:21;7.10;;;5.00;;
61144;SDS011;47026;51.208;3.288;2022-12-19T13:56:16;7.55;;;4.70;;
61144;SDS011;47026;51.208;3.288;2022-12-19T14:01:29;8.40;;;4.55;;
61144;SDS011;47026;51.208;3.288;2022-12-19T14:04:05;6.40;;;4.68;;
61144;SDS011;47026;51.208;3.288;2022-12-19T14:07:05;9.52;;;5.10;;
61144;SDS011;47026;51.208;3.288;2022-12-19T14:12:09;8.30;;;4.90;;
61144;SDS011;47026;51.208;3.288;2022-12-19T14:14:59;8.73;;;4.28;;
61144;SDS011;47026;51.208;3.288;2022-12-19T14:17:40;5.78;;;4.90;;
61144;SDS011;47026;51.208;3.288;2022-12-19T14:20:25;7.87;;;4.50;;
61144;SDS011;47026;51.208;3.288;2022-12-19T14:22:58;6.87;;;4.55;;
61144;SDS011;47026;51.208;3.288;2022-12-19T14:25:29;7.93;;;4.85;;
61144;SDS011;47026;51.208;3.288;2022-12-19T14:27:59;7.00;;;4.70;;
61144;SDS011;47026;51.208;3.288;2022-12-19T14:30:30;6.25;;;4.32;;
61144;SDS011;47026;51.208;3.288;2022-12-19T14:33:04;5.70;;;4.53;;
61144;SDS011;47026;51.208;3.288;2022-12-19T14:35:33;8.38;;;5.35;;
61144;SDS011;47026;51.208;3.288;2022-12-19T14:38:03;7.22;;;4.40;;
61144;SDS011;47026;51.208;3.288;2022-12-19T14:40:33;7.65;;;4.68;;
61144;SDS011;47026;51.208;3.288;2022-12-19T14:43:20;10.50;;;4.85;;
61144;SDS011;47026;51.208;3.288;2022-12-19T14:48:51;5.57;;;3.95;;
61144;SDS011;47026;51.208;3.288;2022-12-19T14:51:25;5.43;;;3.75;;
61144;SDS011;47026;51.208;3.288;2022-12-19T14:54:03;9.25;;;5.40;;
61144;SDS011;47026;51.208;3.288;2022-12-19T14:56:41;4.60;;;4.15;;
61144;SDS011;47026;51.208;3.288;2022-12-19T14:59:41;8.60;;;3.95;;
61144;SDS011;47026;51.208;3.288;2022-12-19T15:07:06;8.00;;;4.07;;
61144;SDS011;47026;51.208;3.288;2022-12-19T15:09:41;7.93;;;4.60;;
61144;SDS011;47026;51.208;3.288;2022-12-19T15:12:14;7.00;;;4.47;;
61144;SDS011;47026;51.208;3.288;2022-12-19T15:15:33;6.78;;;4.78;;
61144;SDS011;47026;51.208;3.288;2022-12-19T15:20:48;8.93;;;4.43;;
61144;SDS011;47026;51.208;3.288;2022-12-19T15:23:15;6.57;;;4.00;;
61144;SDS011;47026;51.208;3.288;2022-12-19T15:25:41;8.48;;;4.62;;
61144;SDS011;47026;51.208;3.288;2022-12-19T15:30:43;8.20;;;5.18;;
61144;SDS011;47026;51.208;3.288;2022-12-19T15:33:13;6.47;;;4.70;;
61144;SDS011;47026;51.208;3.288;2022-12-19T15:35:40;8.60;;;4.70;;
61144;SDS011;47026;51.208;3.288;2022-12-19T15:40:33;8.07;;;4.78;;
61144;SDS011;47026;51.208;3.288;2022-12-19T15:43:01;7.35;;;4.07;;
61144;SDS011;47026;51.208;3.288;2022-12-19T15:45:29;6.60;;;5.10;;
61144;SDS011;47026;51.208;3.288;2022-12-19T15:47:55;7.20;;;5.28;;
61144;SDS011;47026;51.208;3.288;2022-12-19T15:52:48;7.45;;;4.70;;
61144;SDS011;47026;51.208;3.288;2022-12-19T15:55:16;8.15;;;4.87;;
61144;SDS011;47026;51.208;3.288;2022-12-19T15:57:48;6.85;;;5.10;;
61144;SDS011;47026;51.208;3.288;2022-12-19T16:00:20;5.55;;;4.50;;
61144;SDS011;47026;51.208;3.288;2022-12-19T16:02:47;5.68;;;3.92;;
61144;SDS011;47026;51.208;3.288;2022-12-19T16:05:15;6.55;;;4.50;;
61144;SDS011;47026;51.208;3.288;2022-12-19T16:07:42;8.30;;;5.43;;
61144;SDS011;47026;51.208;3.288;2022-12-19T16:10:09;10.02;;;5.18;;
61144;SDS011;47026;51.208;3.288;2022-12-19T16:12:38;8.05;;;5.57;;
61144;SDS011;47026;51.208;3.288;2022-12-19T16:15:09;5.47;;;4.15;;
61144;SDS011;47026;51.208;3.288;2022-12-19T16:17:58;10.57;;;5.93;;
61144;SDS011;47026;51.208;3.288;2022-12-19T16:20:28;7.25;;;4.93;;
61144;SDS011;47026;51.208;3.288;2022-12-19T16:22:55;9.05;;;4.50;;
61144;SDS011;47026;51.208;3.288;2022-12-19T16:25:21;9.18;;;5.95;;
61144;SDS011;47026;51.208;3.288;2022-12-19T16:27:54;8.68;;;5.03;;
61144;SDS011;47026;51.208;3.288;2022-12-19T16:30:23;5.90;;;4.80;;
61144;SDS011;47026;51.208;3.288;2022-12-19T16:32:51;8.70;;;4.65;;
61144;SDS011;47026;51.208;3.288;2022-12-19T16:37:44;5.47;;;4.32;;
61144;SDS011;47026;51.208;3.288;2022-12-19T16:42:39;9.00;;;4.62;;
61144;SDS011;47026;51.208;3.288;2022-12-19T16:45:05;7.12;;;4.72;;
61144;SDS011;47026;51.208;3.288;2022-12-19T16:47:33;8.60;;;5.47;;
61144;SDS011;47026;51.208;3.288;2022-12-19T16:52:26;11.73;;;5.33;;
61144;SDS011;47026;51.208;3.288;2022-12-19T16:54:51;10.23;;;5.00;;
61144;SDS011;47026;51.208;3.288;2022-12-19T16:59:44;7.95;;;4.82;;
61144;SDS011;47026;51.208;3.288;2022-12-19T17:02:22;8.05;;;5.62;;
61144;SDS011;47026;51.208;3.288;2022-12-19T17:05:13;6.03;;;4.78;;
61144;SDS011;47026;51.208;3.288;2022-12-19T17:07:40;7.62;;;5.75;;
61144;SDS011;47026;51.208;3.288;2022-12-19T17:12:32;9.82;;;5.45;;
61144;SDS011;47026;51.208;3.288;2022-12-19T17:17:23;9.00;;;6.10;;
61144;SDS011;47026;51.208;3.288;2022-12-19T17:22:16;10.00;;;5.30;;
61144;SDS011;47026;51.208;3.288;2022-12-19T17:24:44;8.30;;;5.57;;
61144;SDS011;47026;51.208;3.288;2022-12-19T17:27:11;8.05;;;5.62;;
61144;SDS011;47026;51.208;3.288;2022-12-19T17:29:37;10.70;;;6.00;;
61144;SDS011;47026;51.208;3.288;2022-12-19T17:32:03;8.75;;;6.00;;
61144;SDS011;47026;51.208;3.288;2022-12-19T17:34:32;8.93;;;5.97;;
61144;SDS011;47026;51.208;3.288;2022-12-19T17:36:59;8.52;;;6.25;;
61144;SDS011;47026;51.208;3.288;2022-12-19T17:39:28;10.02;;;6.80;;
61144;SDS011;47026;51.208;3.288;2022-12-19T17:42:00;9.75;;;6.47;;
61144;SDS011;47026;51.208;3.288;2022-12-19T17:44:35;10.52;;;5.65;;
61144;SDS011;47026;51.208;3.288;2022-12-19T17:47:00;9.10;;;6.87;;
61144;SDS011;47026;51.208;3.288;2022-12-19T17:49:27;10.57;;;6.53;;
61144;SDS011;47026;51.208;3.288;2022-12-19T17:51:55;10.90;;;5.28;;
61144;SDS011;47026;51.208;3.288;2022-12-19T17:54:22;8.07;;;5.65;;
61144;SDS011;47026;51.208;3.288;2022-12-19T17:56:49;11.35;;;6.90;;
61144;SDS011;47026;51.208;3.288;2022-12-19T17:59:15;8.77;;;6.28;;
61144;SDS011;47026;51.208;3.288;2022-12-19T18:01:41;10.43;;;6.25;;
61144;SDS011;47026;51.208;3.288;2022-12-19T18:04:14;9.55;;;5.80;;
61144;SDS011;47026;51.208;3.288;2022-12-19T18:06:43;10.30;;;5.78;;
61144;SDS011;47026;51.208;3.288;2022-12-19T18:09:16;6.78;;;5.62;;
61144;SDS011;47026;51.208;3.288;2022-12-19T18:11:43;11.05;;;6.05;;
61144;SDS011;47026;51.208;3.288;2022-12-19T18:14:08;10.23;;;6.65;;
61144;SDS011;47026;51.208;3.288;2022-12-19T18:16:35;8.63;;;5.47;;
61144;SDS011;47026;51.208;3.288;2022-12-19T18:19:02;7.85;;;5.00;;
61144;SDS011;47026;51.208;3.288;2022-12-19T18:21:29;6.95;;;5.05;;
61144;SDS011;47026;51.208;3.288;2022-12-19T18:26:20;8.90;;;6.30;;
61144;SDS011;47026;51.208;3.288;2022-12-19T18:28:46;8.95;;;5.90;;
61144;SDS011;47026;51.208;3.288;2022-12-19T18:36:05;10.35;;;5.78;;
61144;SDS011;47026;51.208;3.288;2022-12-19T18:38:32;9.30;;;4.82;;
61144;SDS011;47026;51.208;3.288;2022-12-19T18:43:23;10.52;;;5.62;;
61144;SDS011;47026;51.208;3.288;2022-12-19T18:45:50;8.27;;;5.80;;
61144;SDS011;47026;51.208;3.288;2022-12-19T18:48:26;9.23;;;6.07;;